Time;durP1;ratioP1;P1;durP2;ratioP2;P2;SDS_P1;SDS_P2;PMS_P1;PMS_P2;Temp;Humidity;BMP_temperature;BMP_pressure;BME280_temperature;BME280_humidity;BME280_pressure;Samples;Min_cycle;Max_cycle;Signal;HPM_P1;HPM_P2
2021/01/01 00:01:13;;;;;;;42.15;23.75;;;;;;;3.86;73.47;100269.69;4897189;29;20051;-66
2021/01/01 00:03:40;;;;;;;;;;;;;;;3.89;73.15;100271.84;4881516;29;20053;-64
2021/01/01 00:06:10;;;;;;;45.53;24.30;;;;;;;4.03;72.89;100272.84;4898192;29;19930;-67
2021/01/01 00:08:40;;;;;;;47.72;27.98;;;;;;;4.10;72.42;100273.34;4897692;29;20060;-65
2021/01/01 00:11:07;;;;;;;39.90;24.25;;;;;;;4.23;72.61;100259.13;4897154;29;20060;-65
2021/01/01 00:13:34;;;;;;;36.80;23.15;;;;;;;3.99;72.08;100266.31;4893717;29;20112;-67
2021/01/01 00:16:01;;;;;;;42.15;22.60;;;;;;;3.87;72.64;100268.56;4898010;29;20060;-67
2021/01/01 00:18:28;;;;;;;40.80;22.42;;;;;;;3.62;73.73;100265.16;4880951;29;20053;-65
2021/01/01 00:20:55;;;;;;;43.50;22.50;;;;;;;3.96;72.73;100269.63;4898291;29;20056;-66
2021/01/01 00:23:22;;;;;;;39.60;22.38;;;;;;;4.06;72.03;100266.81;4898028;29;20060;-67
2021/01/01 00:25:52;;;;;;;38.47;23.48;;;;;;;4.15;71.71;100264.34;4865431;29;20068;-66
2021/01/01 00:28:19;;;;;;;44.92;23.27;;;;;;;3.84;72.57;100271.88;4897768;29;20064;-66
2021/01/01 00:30:46;;;;;;;35.08;21.92;;;;;;;3.65;73.88;100267.31;4897180;29;20065;-65
2021/01/01 00:33:14;;;;;;;38.35;22.48;;;;;;;3.47;74.25;100267.94;4880772;29;20484;-65
2021/01/01 00:35:42;;;;;;;40.30;22.50;;;;;;;3.49;74.88;100272.00;4896732;29;20087;-65
2021/01/01 00:38:12;;;;;;;38.38;21.45;;;;;;;3.51;74.73;100272.56;4896330;29;20056;-65
2021/01/01 00:40:57;;;;;;;40.63;22.90;;;;;;;3.78;73.71;100274.91;4897817;29;20060;-65
2021/01/01 00:43:27;;;;;;;36.55;21.40;;;;;;;3.36;73.85;100275.34;4897522;29;20060;-67
2021/01/01 00:45:54;;;;;;;39.75;22.70;;;;;;;3.51;74.13;100271.72;4897586;29;20053;-64
2021/01/01 00:48:26;;;;;;;41.35;22.58;;;;;;;3.26;74.77;100276.16;4882068;29;20044;-66
2021/01/01 00:50:59;;;;;;;36.45;23.25;;;;;;;3.40;75.56;100274.50;4895603;29;20057;-65
2021/01/01 00:53:42;;;;;;;42.75;25.77;;;;;;;3.69;73.45;100279.28;4897317;29;20063;-65
2021/01/01 00:56:09;;;;;;;41.65;25.13;;;;;;;3.62;73.91;100281.50;4876804;29;20052;-66
2021/01/01 00:58:36;;;;;;;44.05;25.63;;;;;;;3.72;73.79;100287.72;4897815;29;20060;-68
2021/01/01 01:01:24;;;;;;;39.08;25.00;;;;;;;3.75;73.27;100286.38;4882271;29;20048;-67
2021/01/01 01:03:55;;;;;;;44.08;26.13;;;;;;;3.71;74.06;100291.56;4897606;29;20061;-67
2021/01/01 01:06:27;;;;;;;46.15;26.27;;;;;;;3.87;73.31;100295.81;4894681;29;20508;-67
2021/01/01 01:08:59;;;;;;;43.63;25.92;;;;;;;3.60;73.99;100289.94;4896759;29;20057;-68
2021/01/01 01:11:28;;;;;;;45.50;26.75;;;;;;;3.31;74.56;100294.41;4897111;29;20064;-67
2021/01/01 01:14:15;;;;;;;42.55;25.05;;;;;;;3.31;75.35;100291.69;4839685;29;20052;-67
2021/01/01 01:16:42;;;;;;;48.80;27.17;;;;;;;3.23;75.13;100294.94;4888084;29;20518;-65
2021/01/01 01:19:09;;;;;;;45.50;24.88;;;;;;;3.27;75.75;100298.75;4880679;29;20064;-66
2021/01/01 01:21:56;;;;;;;44.20;24.42;;;;;;;3.15;75.70;100300.97;4898561;29;20056;-67
2021/01/01 01:24:29;;;;;;;40.60;23.95;;;;;;;3.15;75.60;100304.50;4900433;29;20048;-67
2021/01/01 01:26:57;;;;;;;42.42;24.92;;;;;;;2.90;76.38;100309.16;4898863;29;20057;-66
2021/01/01 01:29:23;;;;;;;41.35;23.60;;;;;;;3.20;75.50;100306.41;4884246;29;20056;-66
2021/01/01 01:32:06;;;;;;;41.95;25.02;;;;;;;3.12;75.68;100306.97;4886089;29;20060;-66
2021/01/01 01:34:34;;;;;;;42.63;24.90;;;;;;;2.92;75.86;100313.22;4900113;29;20064;-66
2021/01/01 01:37:19;;;;;;;44.05;25.13;;;;;;;3.20;75.46;100314.56;4901110;29;20063;-63
2021/01/01 01:39:45;;;;;;;41.10;25.00;;;;;;;3.04;76.24;100310.22;4884163;29;20079;-66
2021/01/01 01:42:12;;;;;;;43.97;26.08;;;;;;;3.10;76.03;100309.13;4900669;29;20052;-67
2021/01/01 01:44:48;;;;;;;42.90;25.73;;;;;;;3.24;75.56;100313.72;4900861;29;20056;-67
2021/01/01 01:47:17;;;;;;;46.35;26.50;;;;;;;3.19;75.21;100313.72;4900868;29;20056;-67
2021/01/01 01:49:48;;;;;;;44.70;25.65;;;;;;;3.25;75.08;100315.38;4884853;29;20048;-67
2021/01/01 01:52:19;;;;;;;44.00;25.52;;;;;;;3.03;76.17;100322.19;4882667;29;20064;-67
2021/01/01 01:54:47;;;;;;;47.72;27.50;;;;;;;3.34;74.84;100326.50;4900744;29;20060;-66
2021/01/01 01:57:24;;;;;;;45.88;25.65;;;;;;;3.13;75.22;100324.91;4884234;29;20052;-66
2021/01/01 01:59:55;;;;;;;50.83;27.17;;;;;;;3.50;74.04;100321.84;4884240;29;20420;-67
2021/01/01 02:02:26;;;;;;;40.88;25.52;;;;;;;3.10;75.80;100328.97;4900097;29;20056;-66
2021/01/01 02:04:53;;;;;;;41.58;24.63;;;;;;;3.17;75.37;100326.78;4900298;29;20413;-67
2021/01/01 02:07:20;;;;;;;43.90;25.65;;;;;;;2.84;76.14;100334.72;4883577;29;20060;-67
2021/01/01 02:09:47;;;;;;;42.72;24.75;;;;;;;3.03;76.02;100335.81;4900069;29;20060;-66
2021/01/01 02:12:15;;;;;;;43.42;25.48;;;;;;;2.80;76.51;100329.00;4899418;29;20175;-68
2021/01/01 02:15:09;;;;;;;44.90;25.05;;;;;;;2.77;76.58;100340.41;4878303;29;20045;-65
2021/01/01 02:17:36;;;;;;;43.28;25.65;;;;;;;3.04;76.72;100331.97;4899899;29;20519;-66
2021/01/01 02:20:09;;;;;;;42.80;24.35;;;;;;;2.94;76.08;100340.97;4899862;29;20055;-67
2021/01/01 02:22:37;;;;;;;43.05;24.65;;;;;;;2.91;76.02;100340.72;4900194;29;20082;-67
2021/01/01 02:25:24;;;;;;;39.13;24.48;;;;;;;2.90;76.59;100337.16;4823794;29;20046;-66
2021/01/01 02:27:53;;;;;;;41.08;24.08;;;;;;;2.95;76.23;100350.75;4874988;29;20056;-66
2021/01/01 02:30:20;;;;;;;42.20;23.63;;;;;;;3.03;75.88;100346.69;4899979;29;20064;-66
2021/01/01 02:32:50;;;;;;;37.35;23.48;;;;;;;2.91;75.78;100351.59;4882669;29;20059;-66
2021/01/01 02:35:20;;;;;;;;;;;;;;;2.91;75.94;100352.38;4900302;29;20064;-66
2021/01/01 02:37:47;;;;;;;39.92;24.35;;;;;;;3.49;75.23;100348.25;4899041;29;19931;-66
2021/01/01 02:40:14;;;;;;;39.85;23.80;;;;;;;3.23;74.94;100352.91;4898012;29;20048;-66
2021/01/01 02:42:40;;;;;;;39.40;23.65;;;;;;;3.24;75.36;100354.53;4899917;29;20056;-66
2021/01/01 02:45:11;;;;;;;38.60;24.48;;;;;;;2.98;75.66;100361.09;4899532;29;20053;-68
2021/01/01 02:47:38;;;;;;;43.50;24.27;;;;;;;2.98;75.81;100354.84;4899102;29;20052;-66
2021/01/01 02:50:05;;;;;;;42.65;24.70;;;;;;;3.35;75.24;100361.63;4899622;29;20053;-67
2021/01/01 02:52:33;;;;;;;42.33;24.50;;;;;;;3.48;73.64;100357.50;4898819;29;20409;-65
2021/01/01 02:55:00;;;;;;;43.90;25.88;;;;;;;3.24;74.23;100359.19;4899472;29;20052;-66
2021/01/01 02:57:27;;;;;;;39.28;24.95;;;;;;;3.71;73.84;100356.09;4899681;29;20048;-67
2021/01/01 02:59:54;;;;;;;40.35;25.05;;;;;;;3.83;72.25;100359.31;4894935;29;20053;-67
2021/01/01 03:02:28;;;;;;;41.13;24.67;;;;;;;3.43;73.76;100360.25;4883951;29;20056;-66
2021/01/01 03:04:54;;;;;;;45.65;25.13;;;;;;;3.00;75.39;100358.13;4898531;29;20063;-66
2021/01/01 03:07:30;;;;;;;42.97;24.73;;;;;;;3.12;75.30;100356.72;4884034;29;20051;-68
2021/01/01 03:09:58;;;;;;;42.28;26.45;;;;;;;3.10;75.39;100360.84;4898915;29;20199;-66
2021/01/01 03:12:39;;;;;;;48.90;25.85;;;;;;;3.30;74.59;100360.78;4896149;29;20408;-66
2021/01/01 03:15:07;;;;;;;44.22;25.42;;;;;;;3.17;75.38;100356.72;4899489;29;20065;-67
2021/01/01 03:17:44;;;;;;;44.08;26.33;;;;;;;3.13;75.44;100358.38;4883093;29;20417;-67
2021/01/01 03:20:14;;;;;;;47.17;26.70;;;;;;;2.97;75.82;100362.19;4898855;29;20061;-66
2021/01/01 03:22:44;;;;;;;39.08;23.77;;;;;;;2.98;76.17;100366.53;4866371;29;20048;-65
2021/01/01 03:25:17;;;;;;;45.05;25.23;;;;;;;3.25;75.59;100366.25;4894676;29;20134;-66
2021/01/01 03:27:44;;;;;;;42.35;25.15;;;;;;;3.35;74.60;100356.16;4882336;29;20048;-66
2021/01/01 03:30:12;;;;;;;40.65;25.15;;;;;;;3.26;74.56;100367.91;4898459;29;20060;-67
2021/01/01 03:32:39;;;;;;;41.08;25.40;;;;;;;3.42;73.61;100364.88;4899005;29;20056;-66
2021/01/01 03:35:06;;;;;;;44.17;26.30;;;;;;;3.11;75.10;100363.28;4898529;29;20056;-66
2021/01/01 03:37:43;;;;;;;43.20;24.55;;;;;;;2.90;75.63;100364.38;4867737;29;20059;-65
2021/01/01 03:40:11;;;;;;;45.38;24.45;;;;;;;2.47;76.95;100372.19;4898544;29;20067;-67
2021/01/01 03:42:38;;;;;;;43.08;24.17;;;;;;;2.28;78.13;100363.75;4898698;29;20048;-65
2021/01/01 03:45:10;;;;;;;36.38;23.02;;;;;;;2.57;77.40;100356.72;4898411;29;20048;-65
2021/01/01 03:47:40;;;;;;;37.65;23.45;;;;;;;2.42;77.30;100361.31;4866873;29;20053;-66
2021/01/01 03:50:09;;;;;;;36.85;22.45;;;;;;;2.59;77.63;100367.31;4898264;29;20057;-66
2021/01/01 03:52:37;;;;;;;39.97;21.75;;;;;;;2.80;77.64;100361.66;4881911;29;20063;-66
2021/01/01 03:55:07;;;;;;;41.65;22.20;;;;;;;2.79;76.63;100365.44;4898377;29;20049;-66
2021/01/01 03:57:34;;;;;;;41.75;23.10;;;;;;;2.72;76.23;100359.44;4898297;29;20068;-65
2021/01/01 04:00:08;;;;;;;36.20;21.80;;;;;;;2.63;77.14;100361.09;4897132;29;20051;-66
2021/01/01 04:02:58;;;;;;;38.90;21.67;;;;;;;2.82;76.88;100366.81;4869115;29;20059;-67
2021/01/01 04:05:27;;;;;;;42.50;22.80;;;;;;;2.91;75.97;100367.91;4897106;29;20075;-66
2021/01/01 04:07:54;;;;;;;37.60;21.42;;;;;;;2.82;76.40;100366.81;4898038;29;20497;-66
2021/01/01 04:10:21;;;;;;;37.88;21.58;;;;;;;2.59;76.78;100365.44;4898301;29;20060;-66
2021/01/01 04:12:48;;;;;;;39.03;21.85;;;;;;;2.50;77.63;100364.31;4897894;29;20082;-66
2021/01/01 04:15:19;;;;;;;40.35;22.13;;;;;;;2.56;77.46;100370.59;4881428;29;20064;-66
2021/01/01 04:17:46;;;;;;;36.45;21.63;;;;;;;2.77;77.54;100366.81;4898127;29;20060;-67
2021/01/01 04:20:19;;;;;;;40.78;22.08;;;;;;;2.90;76.47;100366.25;4896550;29;20067;-66
2021/01/01 04:22:46;;;;;;;38.00;21.75;;;;;;;2.83;76.70;100365.72;4898367;29;20092;-66
2021/01/01 04:25:14;;;;;;;40.85;23.00;;;;;;;2.89;76.40;100368.19;4898181;29;20044;-66
2021/01/01 04:27:41;;;;;;;42.00;22.17;;;;;;;2.77;75.79;100373.03;4898052;29;20485;-67
2021/01/01 04:30:09;;;;;;;39.33;22.48;;;;;;;2.72;76.92;100361.38;4894794;29;20056;-66
2021/01/01 04:32:56;;;;;;;40.75;21.00;;;;;;;3.08;76.04;100369.28;4885005;29;20057;-67
2021/01/01 04:35:26;;;;;;;;;;;;;;;2.84;76.53;100364.66;4850531;29;20061;-67
2021/01/01 04:37:54;;;;;;;39.00;21.23;;;;;;;2.62;76.39;100364.88;4897314;29;19946;-67
2021/01/01 04:40:41;;;;;;;39.25;22.55;;;;;;;2.86;76.40;100365.19;4897285;29;20052;-67
2021/01/01 04:43:12;;;;;;;35.60;21.10;;;;;;;3.22;75.35;100367.63;4881035;29;20378;-67
2021/01/01 04:45:40;;;;;;;35.10;21.40;;;;;;;2.94;75.49;100370.91;4896034;29;20515;-67
2021/01/01 04:48:20;;;;;;;39.95;23.17;;;;;;;3.11;75.72;100371.44;4883157;29;20064;-67
2021/01/01 04:50:47;;;;;;;42.05;23.73;;;;;;;3.26;74.81;100373.34;4880629;29;20056;-67
2021/01/01 04:53:16;;;;;;;38.50;23.75;;;;;;;3.20;74.52;100371.69;4897586;29;20056;-66
2021/01/01 04:55:44;;;;;;;39.95;22.42;;;;;;;3.40;74.64;100371.66;4897012;29;20433;-67
2021/01/01 04:58:13;;;;;;;40.20;21.70;;;;;;;3.61;73.56;100377.91;4903925;29;20400;-67
2021/01/01 05:00:52;;;;;;;36.75;21.23;;;;;;;3.61;73.21;100372.47;4903493;29;20053;-66
2021/01/01 05:03:19;;;;;;;36.47;22.13;;;;;;;3.33;73.88;100382.00;4901973;29;20063;-66
2021/01/01 05:06:04;;;;;;;42.33;23.23;;;;;;;3.47;74.22;100374.13;4910597;29;20060;-65
2021/01/01 05:08:32;;;;;;;43.22;22.77;;;;;;;3.51;73.80;100377.91;4903394;29;20059;-66
2021/01/01 05:11:09;;;;;;;38.22;21.77;;;;;;;3.32;74.14;100380.41;4903482;29;20378;-67
2021/01/01 05:13:39;;;;;;;34.75;20.27;;;;;;;3.06;75.56;100386.94;4904080;29;20056;-67
2021/01/01 05:16:17;;;;;;;35.70;22.15;;;;;;;2.72;76.73;100385.84;4903650;29;20052;-67
2021/01/01 05:18:53;;;;;;;39.38;21.77;;;;;;;2.80;77.34;100383.41;4903995;29;20056;-67
2021/01/01 05:21:25;;;;;;;33.83;19.95;;;;;;;3.17;76.47;100389.38;4887672;29;20489;-67
2021/01/01 05:23:57;;;;;;;34.10;19.10;;;;;;;2.81;77.77;100389.63;4903665;29;20401;-67
2021/01/01 05:26:28;;;;;;;32.88;19.88;;;;;;;2.77;77.95;100394.00;4903489;29;20063;-67
2021/01/01 05:29:20;;;;;;;34.73;19.40;;;;;;;2.81;78.14;100392.34;4902009;29;20052;-66
2021/01/01 05:31:47;;;;;;;40.65;22.38;;;;;;;2.58;79.10;100396.41;4886974;29;20049;-66
2021/01/01 05:34:14;;;;;;;33.00;19.50;;;;;;;2.85;78.98;100396.19;4886961;29;20505;-67
2021/01/01 05:36:42;;;;;;;35.80;20.95;;;;;;;2.93;78.42;100382.84;4903789;29;20045;-66
2021/01/01 05:44:14;;;;;;;34.33;20.13;;;;;;;2.77;78.76;100394.81;4903702;29;20057;-66
2021/01/01 05:47:04;;;;;;;35.03;20.13;;;;;;;2.65;79.52;100405.13;4903360;29;20072;-65
2021/01/01 05:49:41;;;;;;;38.22;21.15;;;;;;;2.78;79.67;100407.34;4903789;29;20075;-66
2021/01/01 05:52:15;;;;;;;38.75;21.95;;;;;;;3.07;78.90;100397.56;4886873;29;20401;-66
2021/01/01 05:55:04;;;;;;;39.03;20.60;;;;;;;2.86;78.15;100414.94;4903194;29;20056;-66
2021/01/01 05:57:37;;;;;;;37.53;22.23;;;;;;;3.04;78.97;100408.97;4903634;29;20432;-65
2021/01/01 06:00:09;;;;;;;38.08;20.85;;;;;;;3.17;77.44;100405.72;4886710;29;20056;-66
2021/01/01 06:02:53;;;;;;;38.67;21.20;;;;;;;2.95;78.48;100407.88;4888665;29;20064;-67
2021/01/01 06:05:20;;;;;;;36.75;20.42;;;;;;;3.12;78.35;100405.72;4886477;29;20052;-65
2021/01/01 06:07:57;;;;;;;35.55;21.50;;;;;;;3.15;77.89;100404.38;4900658;29;20512;-67
2021/01/01 06:10:26;;;;;;;37.90;22.40;;;;;;;3.05;78.34;100409.81;4868253;29;20060;-68
2021/01/01 06:12:59;;;;;;;42.10;22.05;;;;;;;2.85;78.80;100412.50;4884398;29;20053;-66
2021/01/01 06:15:34;;;;;;;36.75;22.50;;;;;;;2.67;79.48;100413.81;4890344;29;20049;-67
2021/01/01 06:18:14;;;;;;;43.30;23.75;;;;;;;2.60;80.11;100420.63;4900080;29;20056;-67
2021/01/01 06:20:56;;;;;;;43.22;23.17;;;;;;;2.72;79.48;100419.28;4884915;29;20061;-66
2021/01/01 06:23:35;;;;;;;43.58;21.50;;;;;;;2.59;79.89;100414.38;4898211;29;20056;-67
2021/01/01 06:26:11;;;;;;;38.60;21.52;;;;;;;2.56;80.28;100425.78;4871058;29;20053;-66
2021/01/01 06:28:44;;;;;;;42.13;22.35;;;;;;;2.43;80.54;100430.88;4900362;29;20412;-66
2021/01/01 06:31:12;;;;;;;36.53;21.50;;;;;;;2.60;80.93;100431.50;4882869;29;20056;-66
2021/01/01 06:33:59;;;;;;;37.85;21.75;;;;;;;2.56;80.72;100431.22;4885840;29;20056;-66
2021/01/01 06:36:37;;;;;;;36.38;20.90;;;;;;;3.00;79.50;100437.00;4900244;29;20055;-66
2021/01/01 06:39:05;;;;;;;39.42;21.35;;;;;;;3.20;78.66;100432.41;4899558;29;20485;-66
2021/01/01 06:41:47;;;;;;;40.50;22.60;;;;;;;3.20;78.95;100432.41;4900216;29;20130;-66
2021/01/01 06:44:33;;;;;;;41.03;22.05;;;;;;;3.26;78.68;100446.81;4894578;29;20063;-66
2021/01/01 06:47:01;;;;;;;35.47;21.30;;;;;;;3.54;77.72;100440.00;4898731;29;20048;-65
2021/01/01 06:49:30;;;;;;;35.60;20.42;;;;;;;3.30;77.85;100443.28;4899165;29;20055;-65
2021/01/01 06:52:16;;;;;;;35.92;21.30;;;;;;;3.31;77.99;100449.53;4898702;29;20523;-66
2021/01/01 06:59:32;;;;;;;40.15;21.52;;;;;;;2.82;79.97;100448.41;4898713;29;20121;-66
2021/01/01 07:02:25;;;;;;;39.17;21.95;;;;;;;3.06;79.80;100457.69;4899845;29;20051;-67
2021/01/01 07:04:53;;;;;;;35.95;22.05;;;;;;;3.07;79.42;100462.03;4893053;29;20075;-66
2021/01/01 07:07:43;;;;;;;36.13;21.25;;;;;;;3.25;79.16;100464.22;4899603;29;20061;-67
2021/01/01 07:10:34;;;;;;;33.92;19.92;;;;;;;3.29;78.57;100460.72;4897432;29;20063;-66
2021/01/01 07:13:17;;;;;;;34.13;20.05;;;;;;;3.29;78.07;100468.88;4897691;29;20610;-66
2021/01/01 07:15:44;;;;;;;33.58;20.00;;;;;;;3.18;78.18;100478.09;4882040;29;20053;-67
2021/01/01 07:18:17;;;;;;;34.30;19.83;;;;;;;3.34;78.58;100478.94;4882629;29;20056;-67
2021/01/01 07:21:10;;;;;;;38.38;20.00;;;;;;;3.37;77.98;100465.59;4876149;29;20048;-67
2021/01/01 07:23:44;;;;;;;36.67;20.60;;;;;;;3.42;77.28;100475.66;4898854;29;20060;-67
2021/01/01 07:26:15;;;;;;;34.25;20.23;;;;;;;2.98;78.69;100478.06;4899258;29;20500;-66
2021/01/01 07:28:44;;;;;;;40.40;21.73;;;;;;;2.96;78.75;100476.72;4897785;29;20059;-67
2021/01/01 07:31:30;;;;;;;34.45;20.95;;;;;;;2.88;79.33;100488.09;4899029;29;20520;-65
2021/01/01 07:34:09;;;;;;;41.70;21.85;;;;;;;2.86;79.31;100482.16;4882999;29;20049;-66
2021/01/01 07:36:37;;;;;;;36.85;20.10;;;;;;;2.62;79.92;100481.78;4898466;29;20088;-67
2021/01/01 07:39:06;;;;;;;36.25;20.13;;;;;;;2.60;80.77;100488.59;4899009;29;20049;-65
2021/01/01 07:41:36;;;;;;;41.83;19.90;;;;;;;2.71;79.50;100488.34;4898565;29;20075;-67
2021/01/01 07:44:09;;;;;;;33.90;20.15;;;;;;;2.42;80.66;100481.72;4898794;29;20045;-66
2021/01/01 07:46:54;;;;;;;35.38;19.60;;;;;;;2.19;81.32;100485.69;4891641;29;20397;-66
2021/01/01 07:49:21;;;;;;;33.63;19.80;;;;;;;2.13;81.05;100488.63;4898206;29;20068;-66
2021/01/01 07:51:49;;;;;;;36.03;19.70;;;;;;;2.22;81.69;100490.59;4898421;29;20053;-67
2021/01/01 07:54:19;;;;;;;34.83;18.92;;;;;;;2.26;81.45;100488.16;4898409;29;20056;-67
2021/01/01 07:56:46;;;;;;;34.35;20.25;;;;;;;2.34;81.02;100493.09;4895920;29;20396;-66
2021/01/01 07:59:14;;;;;;;34.88;19.95;;;;;;;2.61;80.49;100488.31;4881618;29;20056;-67
2021/01/01 08:01:44;;;;;;;34.15;19.33;;;;;;;2.61;79.93;100490.22;4882407;29;20055;-66
2021/01/01 08:04:15;;;;;;;37.85;19.70;;;;;;;2.45;80.35;100496.66;4881909;29;20060;-66
2021/01/01 08:06:44;;;;;;;32.20;19.58;;;;;;;2.72;79.96;100502.78;4881657;29;20056;-65
2021/01/01 08:09:19;;;;;;;39.65;22.23;;;;;;;3.03;78.80;100508.00;4898396;29;20052;-66
2021/01/01 08:11:46;;;;;;;33.85;19.38;;;;;;;2.72;78.72;100510.94;4898292;29;20397;-66
2021/01/01 08:14:20;;;;;;;34.53;19.30;;;;;;;2.60;80.02;100508.41;4894483;29;20059;-66
2021/01/01 08:16:47;;;;;;;34.92;19.58;;;;;;;2.67;79.58;100513.63;4896423;29;20052;-66
2021/01/01 08:19:23;;;;;;;30.25;18.75;;;;;;;2.76;78.54;100514.72;4898368;29;20052;-66
2021/01/01 08:22:09;;;;;;;35.20;19.45;;;;;;;2.55;79.25;100515.72;4904826;29;20492;-67
2021/01/01 08:29:09;;;;;;;31.00;16.88;;;;;;;2.49;79.17;100528.50;4898255;29;20067;-66
2021/01/01 08:31:38;;;;;;;34.92;18.67;;;;;;;2.75;79.39;100526.69;4880690;29;20056;-66
2021/01/01 08:34:24;;;;;;;34.17;19.83;;;;;;;2.63;79.37;100539.72;4864377;29;20049;-66
2021/01/01 08:37:23;;;;;;;36.13;19.35;;;;;;;2.72;78.72;100535.41;4881629;29;20087;-66
2021/01/01 08:44:32;;;;;;;36.00;19.77;;;;;;;2.40;79.24;100542.84;4876915;29;20049;-66
2021/01/01 08:47:00;;;;;;;35.90;19.70;;;;;;;2.32;79.38;100548.81;4894764;29;20064;-65
2021/01/01 08:49:32;;;;;;;33.97;18.38;;;;;;;2.74;79.10;100544.09;4897863;29;20056;-66
2021/01/01 08:52:11;;;;;;;32.50;18.92;;;;;;;2.62;79.01;100544.31;4887169;29;20148;-66
2021/01/01 08:54:45;;;;;;;33.22;18.67;;;;;;;3.03;77.74;100550.72;4881253;29;20055;-66
2021/01/01 09:01:42;;;;;;;33.60;19.38;;;;;;;2.81;77.56;100552.81;4897174;29;20057;-66
2021/01/01 09:04:09;;;;;;;34.63;19.30;;;;;;;2.58;77.68;100556.81;4876047;29;20512;-67
2021/01/01 09:07:03;;;;;;;31.05;18.83;;;;;;;2.90;78.30;100559.38;4885815;29;20053;-67
2021/01/01 09:09:49;;;;;;;33.33;19.23;;;;;;;3.26;76.37;100564.66;4904633;29;20504;-67
2021/01/01 09:17:08;;;;;;;32.85;18.77;;;;;;;2.75;77.50;100570.22;4895576;29;20056;-65
2021/01/01 09:19:35;;;;;;;34.35;19.08;;;;;;;2.88;77.21;100564.25;4897165;29;20056;-66
2021/01/01 09:22:18;;;;;;;30.08;18.25;;;;;;;3.04;76.94;100566.78;4897121;29;20049;-65
2021/01/01 09:25:19;;;;;;;32.28;18.17;;;;;;;3.08;76.47;100570.63;4897066;29;20053;-66
2021/01/01 09:27:50;;;;;;;32.85;19.58;;;;;;;3.38;76.04;100572.59;4897259;29;20053;-67
2021/01/01 09:30:36;;;;;;;31.55;18.33;;;;;;;3.29;75.94;100572.31;4903025;29;20059;-68
2021/01/01 09:33:06;;;;;;;32.72;18.98;;;;;;;3.21;76.09;100580.97;4880442;29;20056;-66
2021/01/01 09:35:43;;;;;;;31.13;18.77;;;;;;;3.30;75.28;100573.94;4895789;29;20052;-66
2021/01/01 09:38:10;;;;;;;28.40;18.27;;;;;;;2.97;76.38;100579.81;4878119;29;20057;-65
2021/01/01 09:40:39;;;;;;;31.80;18.30;;;;;;;2.99;75.47;100585.00;4897892;29;20045;-66
2021/01/01 09:43:13;;;;;;;35.40;18.77;;;;;;;2.91;76.21;100590.97;4899273;29;20064;-67
2021/01/01 09:45:45;;;;;;;31.45;17.65;;;;;;;2.77;76.14;100585.16;4900495;29;20060;-67
2021/01/01 09:48:12;;;;;;;28.73;17.67;;;;;;;2.96;76.07;100588.25;4900824;29;20413;-67
2021/01/01 09:50:46;;;;;;;34.58;18.65;;;;;;;2.80;75.70;100592.00;4883839;29;20056;-67
2021/01/01 09:53:14;;;;;;;28.45;16.00;;;;;;;3.01;75.90;100591.81;4900245;29;20408;-66
2021/01/01 09:55:42;;;;;;;29.25;16.55;;;;;;;3.42;74.52;100588.09;4896386;29;20067;-67
2021/01/01 09:58:11;;;;;;;31.55;15.98;;;;;;;3.31;73.87;100597.31;4883497;29;20060;-66
2021/01/01 10:01:07;;;;;;;27.88;15.85;;;;;;;3.31;75.08;100596.53;4902438;29;20056;-67
2021/01/01 10:03:37;;;;;;;28.73;16.25;;;;;;;3.53;74.04;100591.66;4900834;29;20049;-67
2021/01/01 10:06:04;;;;;;;30.95;17.02;;;;;;;3.67;73.11;100595.50;4900265;29;20060;-70
2021/01/01 10:08:31;;;;;;;29.75;17.30;;;;;;;3.27;73.98;100595.41;4900152;29;20056;-64
2021/01/01 10:10:58;;;;;;;32.33;17.15;;;;;;;3.23;75.25;100599.75;4894963;29;20060;-67
2021/01/01 10:13:28;;;;;;;31.58;18.23;;;;;;;3.30;74.67;100597.59;4900153;29;20061;-67
2021/01/01 10:15:54;;;;;;;23.70;15.73;;;;;;;3.74;73.89;100595.22;4900138;29;20385;-64
2021/01/01 10:18:22;;;;;;;25.85;14.20;;;;;;;3.92;72.40;100592.78;4899090;29;20067;-64
2021/01/01 10:20:49;;;;;;;26.77;14.40;;;;;;;3.95;70.65;100603.13;4883645;29;20060;-67
2021/01/01 10:23:19;;;;;;;26.23;17.10;;;;;;;3.89;71.71;100596.03;4900322;29;20056;-67
2021/01/01 10:25:48;;;;;;;26.77;14.88;;;;;;;4.02;70.92;100598.22;4899285;29;20057;-67
2021/01/01 10:28:19;;;;;;;24.48;14.48;;;;;;;4.15;71.39;100602.31;4900072;29;20065;-67
2021/01/01 10:30:49;;;;;;;21.65;13.43;;;;;;;3.96;71.21;100612.09;4899213;29;20048;-66
2021/01/01 10:33:16;;;;;;;24.17;14.88;;;;;;;4.16;70.79;100603.94;4896796;29;20507;-66
2021/01/01 10:35:43;;;;;;;23.02;13.95;;;;;;;4.32;70.12;100611.81;4899314;29;20052;-66
2021/01/01 10:38:10;;;;;;;22.75;14.10;;;;;;;4.78;68.44;100611.72;4899805;29;20055;-67
2021/01/01 10:40:36;;;;;;;21.60;13.15;;;;;;;4.90;67.95;100607.56;4899309;29;20060;-67
2021/01/01 10:43:03;;;;;;;25.50;13.35;;;;;;;4.91;67.23;100611.13;4897972;29;20519;-66
2021/01/01 10:45:30;;;;;;;22.33;13.90;;;;;;;4.51;68.10;100607.44;4899215;29;20056;-67
2021/01/01 10:47:57;;;;;;;25.00;15.02;;;;;;;4.84;68.06;100618.78;4897662;29;20060;-69
2021/01/01 10:50:24;;;;;;;22.88;13.10;;;;;;;4.92;66.56;100608.13;4899544;29;20048;-67
2021/01/01 10:52:51;;;;;;;22.60;12.45;;;;;;;4.79;66.87;100608.72;4899300;29;20053;-67
2021/01/01 10:55:19;;;;;;;20.15;12.32;;;;;;;4.54;67.07;100606.06;4898183;29;20052;-67
2021/01/01 11:02:14;;;;;;;22.02;13.43;;;;;;;3.91;69.12;100612.09;4880568;29;20049;-66
2021/01/01 11:04:43;;;;;;;20.58;11.90;;;;;;;3.93;68.78;100615.38;4880453;29;20048;-67
2021/01/01 11:07:10;;;;;;;21.52;11.88;;;;;;;3.95;68.51;100615.94;4880625;29;20053;-68
2021/01/01 11:09:37;;;;;;;20.80;11.48;;;;;;;3.91;68.07;100612.94;4879750;29;20494;-66
2021/01/01 12:26:51;;;;;;;11.90;6.90;;;;;;;4.66;59.76;100551.19;4883332;29;20416;-66
2021/01/01 12:29:20;;;;;;;11.80;7.53;;;;;;;4.63;60.08;100558.03;4881545;29;20057;-67
2021/01/01 12:31:50;;;;;;;13.88;7.68;;;;;;;4.48;59.80;100564.34;4898002;29;20060;-66
2021/01/01 12:34:18;;;;;;;16.00;8.50;;;;;;;4.62;60.47;100561.03;4881428;29;20060;-68
2021/01/01 12:36:44;;;;;;;13.52;8.10;;;;;;;4.68;60.75;100558.00;4896272;29;20063;-65
2021/01/01 12:39:11;;;;;;;15.18;9.23;;;;;;;4.87;60.74;100563.66;4897784;29;20409;-66
2021/01/01 12:41:38;;;;;;;13.05;8.07;;;;;;;4.59;59.85;100556.94;4897597;29;20060;-66
2021/01/01 12:44:05;;;;;;;15.43;8.77;;;;;;;4.74;60.28;100553.34;4898082;29;20055;-66
2021/01/01 12:46:32;;;;;;;10.77;6.75;;;;;;;4.51;59.22;100566.53;4897466;29;20052;-65
2021/01/01 12:48:59;;;;;;;12.95;7.20;;;;;;;4.25;59.52;100550.50;4897542;29;20052;-68
2021/01/01 12:51:26;;;;;;;11.02;6.78;;;;;;;4.28;59.38;100550.78;4896739;29;20516;-66
2021/01/01 12:53:53;;;;;;;10.82;6.28;;;;;;;4.32;59.49;100548.31;4881116;29;20508;-67
2021/01/01 12:56:20;;;;;;;10.82;6.20;;;;;;;4.44;58.48;100557.00;4897425;29;20044;-66
2021/01/01 12:58:47;;;;;;;12.35;7.03;;;;;;;4.31;59.20;100552.09;4895475;29;20507;-67
2021/01/01 13:01:15;;;;;;;11.35;7.40;;;;;;;4.39;59.66;100552.34;4896482;29;20060;-67
2021/01/01 13:03:42;;;;;;;13.18;8.57;;;;;;;4.58;59.96;100561.56;4896775;29;20055;-65
2021/01/01 13:06:16;;;;;;;15.73;9.43;;;;;;;4.48;60.26;100561.59;4897599;29;20527;-65
2021/01/01 13:08:46;;;;;;;14.65;9.20;;;;;;;4.51;61.16;100558.34;4883582;29;20059;-67
2021/01/01 13:11:13;;;;;;;15.95;9.70;;;;;;;4.50;60.95;100548.53;4897651;29;20369;-66
2021/01/01 13:13:40;;;;;;;17.30;9.80;;;;;;;4.63;60.59;100543.56;4897296;29;20052;-67
2021/01/01 13:16:08;;;;;;;15.75;9.75;;;;;;;4.66;60.68;100556.63;4897733;29;20076;-67
2021/01/01 13:18:37;;;;;;;16.25;10.73;;;;;;;4.84;61.27;100550.56;4899915;29;20212;-68
2021/01/01 13:21:07;;;;;;;20.10;10.85;;;;;;;4.55;61.09;100555.84;4885074;29;20528;-69
2021/01/01 13:23:38;;;;;;;19.60;10.65;;;;;;;4.75;59.54;100557.69;4901333;29;20061;-67
2021/01/01 13:26:07;;;;;;;19.77;11.25;;;;;;;4.37;60.83;100549.13;4901118;29;20489;-67
2021/01/01 13:28:47;;;;;;;16.85;10.70;;;;;;;4.30;60.84;100548.59;4900342;29;20514;-66